PWSweather.com
Personal Weather Stations
Station Observations
KOHAVON11
Long Road Station, Avon, OH 44011

Long Road StationAvon, OH 44011

Lat: 41.437, Lon: -82.0477

Elevation: 686

Station Type: Davis Vantage Pro2

http://www.avon-weather.com

High Low Average
Temperature 87.1°F30.6°C 72.5°F22.5°C 78.7°F25.9°C
Dew Point 72.5°F22.5°C 64.6°F18.1°C 69.2°F20.7°C
Winds 15.0 mph 24.1 kmh Calm Calm 5.0 mph SSW8.0 kmh SSW
Wind Gusts 25.0 mph40.2 kmh -- 14.0 mph22.5 kmh
Humidity 87% 53% 74%
Pressure 29.74 in1007.1 mb 29.67 in1004.7 mb -
Precipitation 0.04 in1.0 mm - -
Hour Temp Dew Point Humidity Winds Wind Gusts Pressure Precip Precip Rate Daily Precip Total
12:04 AM 72.5°F22.5°C 67.6°F19.8°C 85% 8.0 mph SSW12.9 kmh SSW 21.0 mph33.8 kmh 29.68 in1005.1 mb 0.00 in0.0 mm 0.00 in0.0 mm 0.00 in0.0 mm
12:09 AM 72.6°F22.6°C 67.7°F19.8°C 85% 5.0 mph S8.0 kmh S 21.0 mph33.8 kmh 29.68 in1005.1 mb 0.00 in0.0 mm 0.00 in0.0 mm 0.00 in0.0 mm
12:14 AM 72.7°F22.6°C 67.8°F19.9°C 85% 7.0 mph SE11.3 kmh SE 21.0 mph33.8 kmh 29.68 in1005.1 mb 0.00 in0.0 mm 0.00 in0.0 mm 0.00 in0.0 mm
12:19 AM 72.8°F22.7°C 67.9°F19.9°C 85% 10.0 mph S16.1 kmh S 21.0 mph33.8 kmh 29.68 in1005.1 mb 0.00 in0.0 mm 0.00 in0.0 mm 0.00 in0.0 mm
12:24 AM 72.9°F22.7°C 67.7°F19.8°C 84% 6.0 mph S9.7 kmh S 18.0 mph29.0 kmh 29.68 in1005.1 mb 0.00 in0.0 mm 0.00 in0.0 mm 0.00 in0.0 mm
12:29 AM 72.9°F22.7°C 67.7°F19.8°C 84% 5.0 mph S8.0 kmh S 18.0 mph29.0 kmh 29.68 in1005.1 mb 0.00 in0.0 mm 0.00 in0.0 mm 0.00 in0.0 mm
12:34 AM 72.9°F22.7°C 67.7°F19.8°C 84% 5.0 mph SSW8.0 kmh SSW 16.0 mph25.7 kmh 29.68 in1005.1 mb 0.00 in0.0 mm 0.00 in0.0 mm 0.00 in0.0 mm
12:39 AM 72.9°F22.7°C 67.7°F19.8°C 84% 10.0 mph S16.1 kmh S 16.0 mph25.7 kmh 29.68 in1005.1 mb 0.00 in0.0 mm 0.00 in0.0 mm 0.00 in0.0 mm
12:44 AM 72.8°F22.7°C 67.9°F19.9°C 85% 8.0 mph SSE12.9 kmh SSE 17.0 mph27.4 kmh 29.68 in1005.1 mb 0.00 in0.0 mm 0.00 in0.0 mm 0.00 in0.0 mm
12:49 AM 72.8°F22.7°C 67.9°F19.9°C 85% 7.0 mph S11.3 kmh S 17.0 mph27.4 kmh 29.68 in1005.1 mb 0.00 in0.0 mm 0.00 in0.0 mm 0.00 in0.0 mm
12:54 AM 72.8°F22.7°C 67.9°F19.9°C 85% 3.0 mph SSW4.8 kmh SSW 17.0 mph27.4 kmh 29.68 in1005.1 mb 0.00 in0.0 mm 0.00 in0.0 mm 0.00 in0.0 mm
12:59 AM 72.8°F22.7°C 67.9°F19.9°C 85% 8.0 mph SW12.9 kmh SW 18.0 mph29.0 kmh 29.67 in1004.7 mb 0.00 in0.0 mm 0.00 in0.0 mm 0.00 in0.0 mm
01:04 AM 72.8°F22.7°C 67.9°F19.9°C 85% 5.0 mph SW8.0 kmh SW 25.0 mph40.2 kmh 29.68 in1005.1 mb 0.00 in0.0 mm 0.00 in0.0 mm 0.00 in0.0 mm
01:09 AM 72.8°F22.7°C 67.9°F19.9°C 85% Calm Calm 25.0 mph40.2 kmh 29.68 in1005.1 mb 0.00 in0.0 mm 0.00 in0.0 mm 0.00 in0.0 mm
01:14 AM 72.8°F22.7°C 67.9°F19.9°C 85% 10.0 mph SSE16.1 kmh SSE 25.0 mph40.2 kmh 29.68 in1005.1 mb 0.00 in0.0 mm 0.00 in0.0 mm 0.00 in0.0 mm
01:19 AM 72.9°F22.7°C 68.0°F20.0°C 85% 8.0 mph S12.9 kmh S 25.0 mph40.2 kmh 29.67 in1004.7 mb 0.00 in0.0 mm 0.00 in0.0 mm 0.00 in0.0 mm
01:24 AM 72.9°F22.7°C 68.0°F20.0°C 85% 5.0 mph SSW8.0 kmh SSW 18.0 mph29.0 kmh 29.67 in1004.7 mb 0.00 in0.0 mm 0.00 in0.0 mm 0.00 in0.0 mm
01:29 AM 72.9°F22.7°C 68.0°F20.0°C 85% 9.0 mph S14.5 kmh S 18.0 mph29.0 kmh 29.67 in1004.7 mb 0.00 in0.0 mm 0.00 in0.0 mm 0.00 in0.0 mm
01:34 AM 72.9°F22.7°C 68.0°F20.0°C 85% 7.0 mph SSW11.3 kmh SSW 16.0 mph25.7 kmh 29.67 in1004.7 mb 0.00 in0.0 mm 0.00 in0.0 mm 0.00 in0.0 mm
01:39 AM 72.9°F22.7°C 68.0°F20.0°C 85% 7.0 mph SSW11.3 kmh SSW 16.0 mph25.7 kmh 29.67 in1004.7 mb 0.00 in0.0 mm 0.00 in0.0 mm 0.00 in0.0 mm
01:44 AM 72.9°F22.7°C 68.0°F20.0°C 85% 11.0 mph S17.7 kmh S 16.0 mph25.7 kmh 29.67 in1004.7 mb 0.00 in0.0 mm 0.00 in0.0 mm 0.00 in0.0 mm
01:49 AM 72.9°F22.7°C 68.0°F20.0°C 85% 6.0 mph S9.7 kmh S 19.0 mph30.6 kmh 29.67 in1004.7 mb 0.00 in0.0 mm 0.00 in0.0 mm 0.00 in0.0 mm
01:54 AM 72.9°F22.7°C 68.0°F20.0°C 85% 11.0 mph SSW17.7 kmh SSW 19.0 mph30.6 kmh 29.67 in1004.7 mb 0.00 in0.0 mm 0.00 in0.0 mm 0.00 in0.0 mm
01:59 AM 72.9°F22.7°C 68.0°F20.0°C 85% 7.0 mph SSW11.3 kmh SSW 19.0 mph30.6 kmh 29.68 in1005.1 mb 0.00 in0.0 mm 0.00 in0.0 mm 0.00 in0.0 mm
02:04 AM 73.0°F22.8°C 68.1°F20.1°C 85% 15.0 mph SW24.1 kmh SW 19.0 mph30.6 kmh 29.68 in1005.1 mb 0.00 in0.0 mm 0.00 in0.0 mm 0.00 in0.0 mm
02:09 AM 73.1°F22.8°C 68.2°F20.1°C 85% 7.0 mph S11.3 kmh S 15.0 mph24.1 kmh 29.68 in1005.1 mb 0.00 in0.0 mm 0.00 in0.0 mm 0.00 in0.0 mm
02:14 AM 73.1°F22.8°C 68.2°F20.1°C 85% 14.0 mph S22.5 kmh S 16.0 mph25.7 kmh 29.68 in1005.1 mb 0.00 in0.0 mm 0.00 in0.0 mm 0.00 in0.0 mm
02:19 AM 73.1°F22.8°C 68.2°F20.1°C 85% 11.0 mph S17.7 kmh S 19.0 mph30.6 kmh 29.68 in1005.1 mb 0.00 in0.0 mm 0.00 in0.0 mm 0.00 in0.0 mm
02:24 AM 73.1°F22.8°C 68.2°F20.1°C 85% 7.0 mph S11.3 kmh S 19.0 mph30.6 kmh 29.68 in1005.1 mb 0.00 in0.0 mm 0.00 in0.0 mm 0.00 in0.0 mm
02:29 AM 73.2°F22.9°C 68.3°F20.2°C 85% 7.0 mph S11.3 kmh S 19.0 mph30.6 kmh 29.68 in1005.1 mb 0.00 in0.0 mm 0.00 in0.0 mm 0.00 in0.0 mm
02:34 AM 73.2°F22.9°C 68.3°F20.2°C 85% 10.0 mph S16.1 kmh S 19.0 mph30.6 kmh 29.68 in1005.1 mb 0.00 in0.0 mm 0.00 in0.0 mm 0.00 in0.0 mm
02:39 AM 73.2°F22.9°C 68.3°F20.2°C 85% 8.0 mph S12.9 kmh S 19.0 mph30.6 kmh 29.67 in1004.7 mb 0.00 in0.0 mm 0.00 in0.0 mm 0.00 in0.0 mm
02:44 AM 73.3°F22.9°C 68.4°F20.2°C 85% 5.0 mph SW8.0 kmh SW 19.0 mph30.6 kmh 29.68 in1005.1 mb 0.00 in0.0 mm 0.00 in0.0 mm 0.00 in0.0 mm
02:49 AM 73.4°F23.0°C 68.5°F20.3°C 85% 7.0 mph S11.3 kmh S 19.0 mph30.6 kmh 29.68 in1005.1 mb 0.00 in0.0 mm 0.00 in0.0 mm 0.00 in0.0 mm
02:54 AM 73.4°F23.0°C 68.5°F20.3°C 85% 7.0 mph SSW11.3 kmh SSW 16.0 mph25.7 kmh 29.68 in1005.1 mb 0.00 in0.0 mm 0.00 in0.0 mm 0.00 in0.0 mm
02:59 AM 73.4°F23.0°C 68.5°F20.3°C 85% 12.0 mph S19.3 kmh S 17.0 mph27.4 kmh 29.68 in1005.1 mb 0.00 in0.0 mm 0.00 in0.0 mm 0.00 in0.0 mm
03:04 AM 73.4°F23.0°C 68.5°F20.3°C 85% 7.0 mph SSW11.3 kmh SSW 17.0 mph27.4 kmh 29.68 in1005.1 mb 0.00 in0.0 mm 0.00 in0.0 mm 0.00 in0.0 mm
03:09 AM 73.4°F23.0°C 68.5°F20.3°C 85% 9.0 mph S14.5 kmh S 17.0 mph27.4 kmh 29.68 in1005.1 mb 0.00 in0.0 mm 0.00 in0.0 mm 0.00 in0.0 mm
03:14 AM 73.4°F23.0°C 68.5°F20.3°C 85% 7.0 mph SW11.3 kmh SW 17.0 mph27.4 kmh 29.68 in1005.1 mb 0.00 in0.0 mm 0.00 in0.0 mm 0.00 in0.0 mm
03:19 AM 73.4°F23.0°C 68.5°F20.3°C 85% 5.0 mph SSW8.0 kmh SSW 15.0 mph24.1 kmh 29.68 in1005.1 mb 0.00 in0.0 mm 0.00 in0.0 mm 0.00 in0.0 mm
03:24 AM 73.3°F22.9°C 68.4°F20.2°C 85% 9.0 mph S14.5 kmh S 15.0 mph24.1 kmh 29.68 in1005.1 mb 0.00 in0.0 mm 0.00 in0.0 mm 0.00 in0.0 mm
03:29 AM 73.3°F22.9°C 68.4°F20.2°C 85% 7.0 mph SW11.3 kmh SW 13.0 mph20.9 kmh 29.68 in1005.1 mb 0.00 in0.0 mm 0.00 in0.0 mm 0.00 in0.0 mm
03:34 AM 73.3°F22.9°C 68.4°F20.2°C 85% 7.0 mph SSW11.3 kmh SSW 14.0 mph22.5 kmh 29.69 in1005.4 mb 0.00 in0.0 mm 0.00 in0.0 mm 0.00 in0.0 mm
03:39 AM 73.2°F22.9°C 68.3°F20.2°C 85% 6.0 mph S9.7 kmh S 14.0 mph22.5 kmh 29.69 in1005.4 mb 0.00 in0.0 mm 0.00 in0.0 mm 0.00 in0.0 mm
03:44 AM 73.2°F22.9°C 68.3°F20.2°C 85% 7.0 mph S11.3 kmh S 14.0 mph22.5 kmh 29.69 in1005.4 mb 0.00 in0.0 mm 0.00 in0.0 mm 0.00 in0.0 mm
03:49 AM 73.1°F22.8°C 68.2°F20.1°C 85% 8.0 mph SSW12.9 kmh SSW 14.0 mph22.5 kmh 29.69 in1005.4 mb 0.00 in0.0 mm 0.00 in0.0 mm 0.00 in0.0 mm
03:54 AM 73.1°F22.8°C 68.6°F20.3°C 86% 6.0 mph SE9.7 kmh SE 18.0 mph29.0 kmh 29.69 in1005.4 mb 0.00 in0.0 mm 0.00 in0.0 mm 0.00 in0.0 mm
03:59 AM 73.0°F22.8°C 68.5°F20.3°C 86% 4.0 mph S6.4 kmh S 18.0 mph29.0 kmh 29.69 in1005.4 mb 0.00 in0.0 mm 0.00 in0.0 mm 0.00 in0.0 mm
04:04 AM 72.9°F22.7°C 68.4°F20.2°C 86% 4.0 mph S6.4 kmh S 18.0 mph29.0 kmh 29.68 in1005.1 mb 0.00 in0.0 mm 0.00 in0.0 mm 0.00 in0.0 mm
04:09 AM 72.9°F22.7°C 68.4°F20.2°C 86% 6.0 mph SSW9.7 kmh SSW 18.0 mph29.0 kmh 29.69 in1005.4 mb 0.00 in0.0 mm 0.00 in0.0 mm 0.00 in0.0 mm
04:14 AM 72.9°F22.7°C 68.4°F20.2°C 86% 9.0 mph SSW14.5 kmh SSW 14.0 mph22.5 kmh 29.69 in1005.4 mb 0.00 in0.0 mm 0.00 in0.0 mm 0.00 in0.0 mm
04:19 AM 72.8°F22.7°C 68.3°F20.2°C 86% 6.0 mph S9.7 kmh S 14.0 mph22.5 kmh 29.69 in1005.4 mb 0.00 in0.0 mm 0.00 in0.0 mm 0.00 in0.0 mm
04:24 AM 72.9°F22.7°C 68.4°F20.2°C 86% 6.0 mph S9.7 kmh S 13.0 mph20.9 kmh 29.69 in1005.4 mb 0.00 in0.0 mm 0.00 in0.0 mm 0.00 in0.0 mm
04:29 AM 72.8°F22.7°C 68.3°F20.2°C 86% 2.0 mph SSW3.2 kmh SSW 13.0 mph20.9 kmh 29.69 in1005.4 mb 0.00 in0.0 mm 0.00 in0.0 mm 0.00 in0.0 mm
04:34 AM 72.8°F22.7°C 68.3°F20.2°C 86% 4.0 mph S6.4 kmh S 13.0 mph20.9 kmh 29.69 in1005.4 mb 0.00 in0.0 mm 0.00 in0.0 mm 0.00 in0.0 mm
04:39 AM 72.7°F22.6°C 68.2°F20.1°C 86% 5.0 mph S8.0 kmh S 13.0 mph20.9 kmh 29.70 in1005.8 mb 0.00 in0.0 mm 0.00 in0.0 mm 0.00 in0.0 mm
04:44 AM 72.7°F22.6°C 68.2°F20.1°C 86% 8.0 mph S12.9 kmh S 11.0 mph17.7 kmh 29.70 in1005.8 mb 0.00 in0.0 mm 0.00 in0.0 mm 0.00 in0.0 mm
04:49 AM 72.7°F22.6°C 68.2°F20.1°C 86% 6.0 mph S9.7 kmh S 11.0 mph17.7 kmh 29.70 in1005.8 mb 0.00 in0.0 mm 0.00 in0.0 mm 0.00 in0.0 mm
04:54 AM 72.7°F22.6°C 68.2°F20.1°C 86% 5.0 mph S8.0 kmh S 11.0 mph17.7 kmh 29.70 in1005.8 mb 0.00 in0.0 mm 0.00 in0.0 mm 0.00 in0.0 mm
04:59 AM 72.6°F22.6°C 68.4°F20.2°C 87% Calm Calm 11.0 mph17.7 kmh 29.70 in1005.8 mb 0.00 in0.0 mm 0.00 in0.0 mm 0.00 in0.0 mm
05:04 AM 72.6°F22.6°C 68.4°F20.2°C 87% 7.0 mph S11.3 kmh S 11.0 mph17.7 kmh 29.70 in1005.8 mb 0.00 in0.0 mm 0.00 in0.0 mm 0.00 in0.0 mm
05:09 AM 72.5°F22.5°C 68.3°F20.2°C 87% 3.0 mph SSW4.8 kmh SSW 11.0 mph17.7 kmh 29.70 in1005.8 mb 0.00 in0.0 mm 0.00 in0.0 mm 0.00 in0.0 mm
05:14 AM 72.5°F22.5°C 68.3°F20.2°C 87% 4.0 mph S6.4 kmh S 11.0 mph17.7 kmh 29.71 in1006.1 mb 0.00 in0.0 mm 0.00 in0.0 mm 0.00 in0.0 mm
05:19 AM 72.5°F22.5°C 68.3°F20.2°C 87% Calm Calm 12.0 mph19.3 kmh 29.71 in1006.1 mb 0.00 in0.0 mm 0.00 in0.0 mm 0.00 in0.0 mm
05:24 AM 72.5°F22.5°C 68.3°F20.2°C 87% Calm Calm 12.0 mph19.3 kmh 29.71 in1006.1 mb 0.00 in0.0 mm 0.00 in0.0 mm 0.00 in0.0 mm
05:29 AM 72.5°F22.5°C 68.3°F20.2°C 87% Calm Calm 12.0 mph19.3 kmh 29.71 in1006.1 mb 0.00 in0.0 mm 0.00 in0.0 mm 0.00 in0.0 mm
05:34 AM 72.5°F22.5°C 68.3°F20.2°C 87% 4.0 mph SSW6.4 kmh SSW 7.0 mph11.3 kmh 29.71 in1006.1 mb 0.00 in0.0 mm 0.00 in0.0 mm 0.00 in0.0 mm
05:39 AM 72.6°F22.6°C 68.4°F20.2°C 87% Calm Calm 8.0 mph12.9 kmh 29.71 in1006.1 mb 0.00 in0.0 mm 0.00 in0.0 mm 0.00 in0.0 mm
05:44 AM 72.7°F22.6°C 68.5°F20.3°C 87% Calm Calm 8.0 mph12.9 kmh 29.71 in1006.1 mb 0.00 in0.0 mm 0.00 in0.0 mm 0.00 in0.0 mm
05:49 AM 72.7°F22.6°C 68.5°F20.3°C 87% 5.0 mph S8.0 kmh S 13.0 mph20.9 kmh 29.71 in1006.1 mb 0.00 in0.0 mm 0.00 in0.0 mm 0.00 in0.0 mm
05:54 AM 72.8°F22.7°C 68.6°F20.3°C 87% 5.0 mph S8.0 kmh S 13.0 mph20.9 kmh 29.71 in1006.1 mb 0.00 in0.0 mm 0.00 in0.0 mm 0.00 in0.0 mm
05:59 AM 72.9°F22.7°C 68.7°F20.4°C 87% Calm Calm 14.0 mph22.5 kmh 29.72 in1006.4 mb 0.00 in0.0 mm 0.00 in0.0 mm 0.00 in0.0 mm
06:04 AM 73.0°F22.8°C 68.8°F20.4°C 87% Calm Calm 14.0 mph22.5 kmh 29.72 in1006.4 mb 0.00 in0.0 mm 0.00 in0.0 mm 0.00 in0.0 mm
06:09 AM 73.1°F22.8°C 68.9°F20.5°C 87% Calm Calm 14.0 mph22.5 kmh 29.71 in1006.1 mb 0.00 in0.0 mm 0.00 in0.0 mm 0.00 in0.0 mm
06:14 AM 73.4°F23.0°C 69.2°F20.7°C 87% 6.0 mph SSW9.7 kmh SSW 15.0 mph24.1 kmh 29.71 in1006.1 mb 0.00 in0.0 mm 0.00 in0.0 mm 0.00 in0.0 mm
06:19 AM 73.6°F23.1°C 69.4°F20.8°C 87% Calm Calm 15.0 mph24.1 kmh 29.72 in1006.4 mb 0.00 in0.0 mm 0.00 in0.0 mm 0.00 in0.0 mm
06:24 AM 73.9°F23.3°C 69.3°F20.7°C 86% 1.0 mph S1.6 kmh S 16.0 mph25.7 kmh 29.72 in1006.4 mb 0.00 in0.0 mm 0.00 in0.0 mm 0.00 in0.0 mm
06:29 AM 74.0°F23.3°C 69.4°F20.8°C 86% 3.0 mph S4.8 kmh S 16.0 mph25.7 kmh 29.72 in1006.4 mb 0.00 in0.0 mm 0.00 in0.0 mm 0.00 in0.0 mm
06:34 AM 74.1°F23.4°C 69.5°F20.8°C 86% 4.0 mph S6.4 kmh S 16.0 mph25.7 kmh 29.72 in1006.4 mb 0.00 in0.0 mm 0.00 in0.0 mm 0.00 in0.0 mm
06:39 AM 74.0°F23.3°C 69.4°F20.8°C 86% Calm Calm 16.0 mph25.7 kmh 29.72 in1006.4 mb 0.00 in0.0 mm 0.00 in0.0 mm 0.00 in0.0 mm
06:44 AM 74.3°F23.5°C 69.7°F20.9°C 86% 9.0 mph S14.5 kmh S 14.0 mph22.5 kmh 29.72 in1006.4 mb 0.00 in0.0 mm 0.00 in0.0 mm 0.00 in0.0 mm
06:49 AM 74.8°F23.8°C 69.9°F21.1°C 85% Calm Calm 14.0 mph22.5 kmh 29.73 in1006.8 mb 0.00 in0.0 mm 0.00 in0.0 mm 0.00 in0.0 mm
06:54 AM 74.9°F23.8°C 70.0°F21.1°C 85% 5.0 mph S8.0 kmh S 11.0 mph17.7 kmh 29.73 in1006.8 mb 0.00 in0.0 mm 0.00 in0.0 mm 0.00 in0.0 mm
06:59 AM 75.1°F23.9°C 70.2°F21.2°C 85% 1.0 mph S1.6 kmh S 11.0 mph17.7 kmh 29.73 in1006.8 mb 0.00 in0.0 mm 0.00 in0.0 mm 0.00 in0.0 mm
07:04 AM 75.4°F24.1°C 70.1°F21.2°C 84% 12.0 mph S19.3 kmh S 13.0 mph20.9 kmh 29.73 in1006.8 mb 0.00 in0.0 mm 0.00 in0.0 mm 0.00 in0.0 mm
07:09 AM 75.6°F24.2°C 70.3°F21.3°C 84% 12.0 mph SSW19.3 kmh SSW 15.0 mph24.1 kmh 29.73 in1006.8 mb 0.00 in0.0 mm 0.00 in0.0 mm 0.00 in0.0 mm
07:14 AM 75.6°F24.2°C 70.3°F21.3°C 84% 7.0 mph S11.3 kmh S 15.0 mph24.1 kmh 29.73 in1006.8 mb 0.00 in0.0 mm 0.00 in0.0 mm 0.00 in0.0 mm
07:19 AM 75.8°F24.3°C 70.5°F21.4°C 84% 3.0 mph SSW4.8 kmh SSW 15.0 mph24.1 kmh 29.73 in1006.8 mb 0.00 in0.0 mm 0.00 in0.0 mm 0.00 in0.0 mm
07:24 AM 76.1°F24.5°C 70.4°F21.3°C 83% 5.0 mph SSW8.0 kmh SSW 15.0 mph24.1 kmh 29.73 in1006.8 mb 0.00 in0.0 mm 0.00 in0.0 mm 0.00 in0.0 mm
07:29 AM 76.3°F24.6°C 70.6°F21.4°C 83% 3.0 mph S4.8 kmh S 12.0 mph19.3 kmh 29.73 in1006.8 mb 0.00 in0.0 mm 0.00 in0.0 mm 0.00 in0.0 mm
07:34 AM 76.5°F24.7°C 70.8°F21.6°C 83% 3.0 mph SSW4.8 kmh SSW 12.0 mph19.3 kmh 29.73 in1006.8 mb 0.00 in0.0 mm 0.00 in0.0 mm 0.00 in0.0 mm
07:39 AM 77.0°F25.0°C 70.9°F21.6°C 82% 1.0 mph S1.6 kmh S 12.0 mph19.3 kmh 29.73 in1006.8 mb 0.00 in0.0 mm 0.00 in0.0 mm 0.00 in0.0 mm
07:44 AM 77.2°F25.1°C 70.7°F21.5°C 81% 2.0 mph SSW3.2 kmh SSW 14.0 mph22.5 kmh 29.73 in1006.8 mb 0.00 in0.0 mm 0.00 in0.0 mm 0.00 in0.0 mm
07:49 AM 77.3°F25.2°C 70.8°F21.6°C 81% 4.0 mph SSW6.4 kmh SSW 14.0 mph22.5 kmh 29.73 in1006.8 mb 0.00 in0.0 mm 0.00 in0.0 mm 0.00 in0.0 mm
07:54 AM 77.5°F25.3°C 71.0°F21.7°C 81% 5.0 mph WSW8.0 kmh WSW 14.0 mph22.5 kmh 29.73 in1006.8 mb 0.00 in0.0 mm 0.00 in0.0 mm 0.00 in0.0 mm
07:59 AM 77.2°F25.1°C 70.7°F21.5°C 81% 5.0 mph SSW8.0 kmh SSW 15.0 mph24.1 kmh 29.73 in1006.8 mb 0.00 in0.0 mm 0.00 in0.0 mm 0.00 in0.0 mm
08:04 AM 77.9°F25.5°C 71.1°F21.7°C 80% 5.0 mph S8.0 kmh S 15.0 mph24.1 kmh 29.73 in1006.8 mb 0.00 in0.0 mm 0.00 in0.0 mm 0.00 in0.0 mm
08:09 AM 78.3°F25.7°C 71.1°F21.7°C 79% 5.0 mph SW8.0 kmh SW 15.0 mph24.1 kmh 29.73 in1006.8 mb 0.00 in0.0 mm 0.00 in0.0 mm 0.00 in0.0 mm
08:14 AM 78.5°F25.8°C 71.3°F21.8°C 79% 5.0 mph SSW8.0 kmh SSW 20.0 mph32.2 kmh 29.73 in1006.8 mb 0.00 in0.0 mm 0.00 in0.0 mm 0.00 in0.0 mm
08:19 AM 78.6°F25.9°C 71.0°F21.7°C 78% 12.0 mph SW19.3 kmh SW 20.0 mph32.2 kmh 29.73 in1006.8 mb 0.00 in0.0 mm 0.00 in0.0 mm 0.00 in0.0 mm
08:24 AM 79.2°F26.2°C 71.5°F21.9°C 78% 1.0 mph SW1.6 kmh SW 20.0 mph32.2 kmh 29.73 in1006.8 mb 0.00 in0.0 mm 0.00 in0.0 mm 0.00 in0.0 mm
08:29 AM 79.6°F26.4°C 71.1°F21.7°C 76% 2.0 mph SSW3.2 kmh SSW 20.0 mph32.2 kmh 29.74 in1007.1 mb 0.00 in0.0 mm 0.00 in0.0 mm 0.00 in0.0 mm
08:34 AM 79.8°F26.6°C 72.1°F22.3°C 78% 2.0 mph SSW3.2 kmh SSW 20.0 mph32.2 kmh 29.73 in1006.8 mb 0.00 in0.0 mm 0.00 in0.0 mm 0.00 in0.0 mm
08:39 AM 79.9°F26.6°C 71.4°F21.9°C 76% Calm Calm 20.0 mph32.2 kmh 29.74 in1007.1 mb 0.00 in0.0 mm 0.00 in0.0 mm 0.00 in0.0 mm
08:44 AM 80.4°F26.9°C 71.9°F22.2°C 76% Calm Calm 20.0 mph32.2 kmh 29.74 in1007.1 mb 0.00 in0.0 mm 0.00 in0.0 mm 0.00 in0.0 mm
08:49 AM 80.6°F27.0°C 70.9°F21.6°C 73% 11.0 mph S17.7 kmh S 15.0 mph24.1 kmh 29.74 in1007.1 mb 0.00 in0.0 mm 0.00 in0.0 mm 0.00 in0.0 mm
08:54 AM 80.4°F26.9°C 71.5°F21.9°C 75% 5.0 mph S8.0 kmh S 15.0 mph24.1 kmh 29.74 in1007.1 mb 0.00 in0.0 mm 0.00 in0.0 mm 0.00 in0.0 mm
08:59 AM 80.7°F27.1°C 71.4°F21.9°C 74% 8.0 mph S12.9 kmh S 15.0 mph24.1 kmh 29.74 in1007.1 mb 0.00 in0.0 mm 0.00 in0.0 mm 0.00 in0.0 mm
09:04 AM 80.5°F26.9°C 69.9°F21.1°C 71% 9.0 mph S14.5 kmh S 17.0 mph27.4 kmh 29.74 in1007.1 mb 0.00 in0.0 mm 0.00 in0.0 mm 0.00 in0.0 mm
09:09 AM 80.5°F26.9°C 70.8°F21.6°C 73% 6.0 mph SW9.7 kmh SW 17.0 mph27.4 kmh 29.74 in1007.1 mb 0.00 in0.0 mm 0.00 in0.0 mm 0.00 in0.0 mm
09:14 AM 81.1°F27.3°C 71.8°F22.1°C 74% 3.0 mph SSW4.8 kmh SSW 17.0 mph27.4 kmh 29.74 in1007.1 mb 0.00 in0.0 mm 0.00 in0.0 mm 0.00 in0.0 mm
09:19 AM 81.7°F27.6°C 71.5°F21.9°C 72% 10.0 mph SW16.1 kmh SW 17.0 mph27.4 kmh 29.74 in1007.1 mb 0.00 in0.0 mm 0.00 in0.0 mm 0.00 in0.0 mm
09:24 AM 81.5°F27.5°C 70.0°F21.1°C 69% 8.0 mph SSW12.9 kmh SSW 17.0 mph27.4 kmh 29.74 in1007.1 mb 0.00 in0.0 mm 0.00 in0.0 mm 0.00 in0.0 mm
09:29 AM 81.8°F27.7°C 71.6°F22.0°C 72% 8.0 mph S12.9 kmh S 17.0 mph27.4 kmh 29.74 in1007.1 mb 0.00 in0.0 mm 0.00 in0.0 mm 0.00 in0.0 mm
09:34 AM 81.7°F27.6°C 71.9°F22.2°C 73% 5.0 mph SW8.0 kmh SW 16.0 mph25.7 kmh 29.74 in1007.1 mb 0.00 in0.0 mm 0.00 in0.0 mm 0.00 in0.0 mm
09:39 AM 82.1°F27.8°C 71.0°F21.7°C 70% 4.0 mph SW6.4 kmh SW 16.0 mph25.7 kmh 29.74 in1007.1 mb 0.00 in0.0 mm 0.00 in0.0 mm 0.00 in0.0 mm
09:44 AM 82.0°F27.8°C 70.5°F21.4°C 69% 4.0 mph WSW6.4 kmh WSW 17.0 mph27.4 kmh 29.74 in1007.1 mb 0.00 in0.0 mm 0.00 in0.0 mm 0.00 in0.0 mm
09:49 AM 83.1°F28.4°C 72.4°F22.4°C 71% 2.0 mph SW3.2 kmh SW 17.0 mph27.4 kmh 29.74 in1007.1 mb 0.00 in0.0 mm 0.00 in0.0 mm 0.00 in0.0 mm
09:54 AM 83.6°F28.7°C 72.5°F22.5°C 70% 5.0 mph SW8.0 kmh SW 17.0 mph27.4 kmh 29.74 in1007.1 mb 0.00 in0.0 mm 0.00 in0.0 mm 0.00 in0.0 mm
09:59 AM 83.9°F28.8°C 70.0°F21.1°C 64% 4.0 mph WSW6.4 kmh WSW 17.0 mph27.4 kmh 29.74 in1007.1 mb 0.00 in0.0 mm 0.00 in0.0 mm 0.00 in0.0 mm
10:04 AM 83.8°F28.8°C 69.9°F21.1°C 64% 13.0 mph S20.9 kmh S 14.0 mph22.5 kmh 29.74 in1007.1 mb 0.00 in0.0 mm 0.00 in0.0 mm 0.00 in0.0 mm
10:09 AM 83.6°F28.7°C 71.1°F21.7°C 67% 5.0 mph SW8.0 kmh SW 15.0 mph24.1 kmh 29.74 in1007.1 mb 0.00 in0.0 mm 0.00 in0.0 mm 0.00 in0.0 mm
10:14 AM 84.0°F28.9°C 71.5°F21.9°C 67% 5.0 mph SW8.0 kmh SW 15.0 mph24.1 kmh 29.74 in1007.1 mb 0.00 in0.0 mm 0.00 in0.0 mm 0.00 in0.0 mm
10:19 AM 83.9°F28.8°C 70.5°F21.4°C 65% 3.0 mph WSW4.8 kmh WSW 15.0 mph24.1 kmh 29.74 in1007.1 mb 0.00 in0.0 mm 0.00 in0.0 mm 0.00 in0.0 mm
10:24 AM 83.8°F28.8°C 69.9°F21.1°C 64% 12.0 mph S19.3 kmh S 15.0 mph24.1 kmh 29.74 in1007.1 mb 0.00 in0.0 mm 0.00 in0.0 mm 0.00 in0.0 mm
10:29 AM 83.6°F28.7°C 69.7°F20.9°C 64% 13.0 mph S20.9 kmh S 15.0 mph24.1 kmh 29.74 in1007.1 mb 0.00 in0.0 mm 0.00 in0.0 mm 0.00 in0.0 mm
10:34 AM 83.8°F28.8°C 69.4°F20.8°C 63% 9.0 mph SSW14.5 kmh SSW 16.0 mph25.7 kmh 29.74 in1007.1 mb 0.00 in0.0 mm 0.00 in0.0 mm 0.00 in0.0 mm
10:39 AM 83.4°F28.6°C 69.1°F20.6°C 63% 13.0 mph SSW20.9 kmh SSW 17.0 mph27.4 kmh 29.74 in1007.1 mb 0.00 in0.0 mm 0.00 in0.0 mm 0.00 in0.0 mm
10:44 AM 84.3°F29.1°C 69.9°F21.1°C 63% 3.0 mph SW4.8 kmh SW 17.0 mph27.4 kmh 29.74 in1007.1 mb 0.00 in0.0 mm 0.00 in0.0 mm 0.00 in0.0 mm
10:49 AM 85.0°F29.4°C 70.1°F21.2°C 62% 5.0 mph SW8.0 kmh SW 17.0 mph27.4 kmh 29.74 in1007.1 mb 0.00 in0.0 mm 0.00 in0.0 mm 0.00 in0.0 mm
10:54 AM 84.8°F29.3°C 70.9°F21.6°C 64% 5.0 mph S8.0 kmh S 17.0 mph27.4 kmh 29.74 in1007.1 mb 0.00 in0.0 mm 0.00 in0.0 mm 0.00 in0.0 mm
10:59 AM 84.6°F29.2°C 70.7°F21.5°C 64% 3.0 mph SW4.8 kmh SW 15.0 mph24.1 kmh 29.74 in1007.1 mb 0.00 in0.0 mm 0.00 in0.0 mm 0.00 in0.0 mm
11:04 AM 84.0°F28.9°C 69.6°F20.9°C 63% 6.0 mph SW9.7 kmh SW 17.0 mph27.4 kmh 29.74 in1007.1 mb 0.00 in0.0 mm 0.00 in0.0 mm 0.00 in0.0 mm
11:09 AM 83.9°F28.8°C 71.0°F21.7°C 66% 4.0 mph SW6.4 kmh SW 17.0 mph27.4 kmh 29.74 in1007.1 mb 0.00 in0.0 mm 0.00 in0.0 mm 0.00 in0.0 mm
11:14 AM 84.1°F28.9°C 70.2°F21.2°C 64% 4.0 mph WSW6.4 kmh WSW 17.0 mph27.4 kmh 29.74 in1007.1 mb 0.00 in0.0 mm 0.00 in0.0 mm 0.00 in0.0 mm
11:19 AM 85.0°F29.4°C 70.1°F21.2°C 62% 5.0 mph WSW8.0 kmh WSW 17.0 mph27.4 kmh 29.74 in1007.1 mb 0.00 in0.0 mm 0.00 in0.0 mm 0.00 in0.0 mm
11:24 AM 85.1°F29.5°C 69.7°F20.9°C 61% 6.0 mph SE9.7 kmh SE 20.0 mph32.2 kmh 29.74 in1007.1 mb 0.00 in0.0 mm 0.00 in0.0 mm 0.00 in0.0 mm
11:29 AM 84.9°F29.4°C 69.5°F20.8°C 61% 5.0 mph S8.0 kmh S 20.0 mph32.2 kmh 29.73 in1006.8 mb 0.00 in0.0 mm 0.00 in0.0 mm 0.00 in0.0 mm
11:34 AM 84.8°F29.3°C 69.4°F20.8°C 61% 8.0 mph S12.9 kmh S 20.0 mph32.2 kmh 29.73 in1006.8 mb 0.00 in0.0 mm 0.00 in0.0 mm 0.00 in0.0 mm
11:39 AM 85.6°F29.8°C 70.2°F21.2°C 61% 7.0 mph S11.3 kmh S 20.0 mph32.2 kmh 29.73 in1006.8 mb 0.00 in0.0 mm 0.00 in0.0 mm 0.00 in0.0 mm
11:44 AM 86.2°F30.1°C 69.7°F20.9°C 59% 7.0 mph SSW11.3 kmh SSW 17.0 mph27.4 kmh 29.73 in1006.8 mb 0.00 in0.0 mm 0.00 in0.0 mm 0.00 in0.0 mm
11:49 AM 85.4°F29.7°C 69.0°F20.6°C 59% 7.0 mph SSW11.3 kmh SSW 17.0 mph27.4 kmh 29.73 in1006.8 mb 0.00 in0.0 mm 0.00 in0.0 mm 0.00 in0.0 mm
11:54 AM 84.2°F29.0°C 68.3°F20.2°C 60% Calm Calm -- 29.73 in1006.8 mb 0.00 in0.0 mm 0.00 in0.0 mm 0.00 in0.0 mm
11:59 AM 83.8°F28.8°C 68.5°F20.3°C 61% 3.0 mph WSW4.8 kmh WSW 15.0 mph24.1 kmh 29.73 in1006.8 mb 0.00 in0.0 mm 0.00 in0.0 mm 0.00 in0.0 mm
12:04 PM 85.9°F29.9°C 70.4°F21.3°C 61% 4.0 mph WSW6.4 kmh WSW 15.0 mph24.1 kmh 29.72 in1006.4 mb 0.00 in0.0 mm 0.00 in0.0 mm 0.00 in0.0 mm
12:09 PM 84.9°F29.4°C 68.5°F20.3°C 59% 4.0 mph SW6.4 kmh SW 15.0 mph24.1 kmh 29.73 in1006.8 mb 0.00 in0.0 mm 0.00 in0.0 mm 0.00 in0.0 mm
12:14 PM 84.7°F29.3°C 69.3°F20.7°C 61% 3.0 mph WSW4.8 kmh WSW 15.0 mph24.1 kmh 29.73 in1006.8 mb 0.00 in0.0 mm 0.00 in0.0 mm 0.00 in0.0 mm
12:19 PM 86.2°F30.1°C 69.7°F20.9°C 59% 3.0 mph SW4.8 kmh SW 13.0 mph20.9 kmh 29.72 in1006.4 mb 0.00 in0.0 mm 0.00 in0.0 mm 0.00 in0.0 mm
12:24 PM 87.1°F30.6°C 71.6°F22.0°C 61% Calm Calm 13.0 mph20.9 kmh 29.72 in1006.4 mb 0.00 in0.0 mm 0.00 in0.0 mm 0.00 in0.0 mm
12:29 PM 86.8°F30.4°C 68.7°F20.4°C 56% 7.0 mph S11.3 kmh S 15.0 mph24.1 kmh 29.72 in1006.4 mb 0.00 in0.0 mm 0.00 in0.0 mm 0.00 in0.0 mm
12:34 PM 85.2°F29.6°C 68.8°F20.4°C 59% 4.0 mph WSW6.4 kmh WSW 15.0 mph24.1 kmh 29.72 in1006.4 mb 0.00 in0.0 mm 0.00 in0.0 mm 0.00 in0.0 mm
12:39 PM 84.4°F29.1°C 67.5°F19.7°C 58% 5.0 mph S8.0 kmh S 15.0 mph24.1 kmh 29.72 in1006.4 mb 0.00 in0.0 mm 0.00 in0.0 mm 0.00 in0.0 mm
12:44 PM 84.5°F29.2°C 68.6°F20.3°C 60% 5.0 mph WSW8.0 kmh WSW 15.0 mph24.1 kmh 29.72 in1006.4 mb 0.00 in0.0 mm 0.00 in0.0 mm 0.00 in0.0 mm
12:49 PM 86.2°F30.1°C 69.7°F20.9°C 59% 9.0 mph WSW14.5 kmh WSW 14.0 mph22.5 kmh 29.72 in1006.4 mb 0.00 in0.0 mm 0.00 in0.0 mm 0.00 in0.0 mm
12:54 PM 87.0°F30.6°C 68.3°F20.2°C 55% 7.0 mph WSW11.3 kmh WSW 18.0 mph29.0 kmh 29.72 in1006.4 mb 0.00 in0.0 mm 0.00 in0.0 mm 0.00 in0.0 mm
12:59 PM 87.1°F30.6°C 67.3°F19.6°C 53% 7.0 mph WSW11.3 kmh WSW 18.0 mph29.0 kmh 29.72 in1006.4 mb 0.00 in0.0 mm 0.00 in0.0 mm 0.00 in0.0 mm
01:04 PM 86.1°F30.1°C 67.5°F19.7°C 55% 5.0 mph SSW8.0 kmh SSW 18.0 mph29.0 kmh 29.72 in1006.4 mb 0.00 in0.0 mm 0.00 in0.0 mm 0.00 in0.0 mm
01:09 PM 85.1°F29.5°C 67.1°F19.5°C 56% 5.0 mph WSW8.0 kmh WSW 18.0 mph29.0 kmh 29.71 in1006.1 mb 0.00 in0.0 mm 0.00 in0.0 mm 0.00 in0.0 mm
01:14 PM 84.3°F29.1°C 67.4°F19.7°C 58% 8.0 mph S12.9 kmh S 12.0 mph19.3 kmh 29.71 in1006.1 mb 0.00 in0.0 mm 0.00 in0.0 mm 0.00 in0.0 mm
01:19 PM 83.9°F28.8°C 67.6°F19.8°C 59% 4.0 mph SSW6.4 kmh SSW 12.0 mph19.3 kmh 29.71 in1006.1 mb 0.00 in0.0 mm 0.00 in0.0 mm 0.00 in0.0 mm
01:24 PM 83.5°F28.6°C 68.2°F20.1°C 61% 6.0 mph WSW9.7 kmh WSW 11.0 mph17.7 kmh 29.71 in1006.1 mb 0.00 in0.0 mm 0.00 in0.0 mm 0.00 in0.0 mm
01:29 PM 82.8°F28.2°C 68.5°F20.3°C 63% 3.0 mph WSW4.8 kmh WSW 11.0 mph17.7 kmh 29.71 in1006.1 mb 0.00 in0.0 mm 0.00 in0.0 mm 0.00 in0.0 mm
01:34 PM 81.8°F27.7°C 68.5°F20.3°C 65% 1.0 mph WSW1.6 kmh WSW 8.0 mph12.9 kmh 29.71 in1006.1 mb 0.00 in0.0 mm 0.00 in0.0 mm 0.00 in0.0 mm
01:39 PM 83.5°F28.6°C 71.0°F21.7°C 67% Calm Calm 8.0 mph12.9 kmh 29.71 in1006.1 mb 0.00 in0.0 mm 0.00 in0.0 mm 0.00 in0.0 mm
01:44 PM 85.3°F29.6°C 71.3°F21.8°C 64% Calm Calm 5.0 mph8.0 kmh 29.71 in1006.1 mb 0.00 in0.0 mm 0.00 in0.0 mm 0.00 in0.0 mm
01:49 PM 86.1°F30.1°C 69.1°F20.6°C 58% 5.0 mph S8.0 kmh S 13.0 mph20.9 kmh 29.70 in1005.8 mb 0.00 in0.0 mm 0.00 in0.0 mm 0.00 in0.0 mm
01:54 PM 85.4°F29.7°C 69.0°F20.6°C 59% 4.0 mph SW6.4 kmh SW 13.0 mph20.9 kmh 29.71 in1006.1 mb 0.00 in0.0 mm 0.00 in0.0 mm 0.00 in0.0 mm
01:59 PM 84.6°F29.2°C 67.2°F19.6°C 57% 5.0 mph SW8.0 kmh SW 13.0 mph20.9 kmh 29.71 in1006.1 mb 0.00 in0.0 mm 0.00 in0.0 mm 0.00 in0.0 mm
02:04 PM 83.9°F28.8°C 68.1°F20.1°C 60% 3.0 mph WSW4.8 kmh WSW 13.0 mph20.9 kmh 29.70 in1005.8 mb 0.00 in0.0 mm 0.00 in0.0 mm 0.00 in0.0 mm
02:09 PM 83.3°F28.5°C 68.0°F20.0°C 61% 4.0 mph WSW6.4 kmh WSW 13.0 mph20.9 kmh 29.71 in1006.1 mb 0.00 in0.0 mm 0.00 in0.0 mm 0.00 in0.0 mm
02:14 PM 82.8°F28.2°C 68.5°F20.3°C 63% 4.0 mph WSW6.4 kmh WSW 13.0 mph20.9 kmh 29.71 in1006.1 mb 0.00 in0.0 mm 0.00 in0.0 mm 0.00 in0.0 mm
02:19 PM 82.5°F28.1°C 66.8°F19.3°C 60% 6.0 mph W9.7 kmh W 20.0 mph32.2 kmh 29.72 in1006.4 mb 0.00 in0.0 mm 0.00 in0.0 mm 0.00 in0.0 mm
02:24 PM 80.2°F26.8°C 64.6°F18.1°C 60% 4.0 mph WSW6.4 kmh WSW 20.0 mph32.2 kmh 29.71 in1006.1 mb 0.00 in0.0 mm 0.00 in0.0 mm 0.00 in0.0 mm
02:29 PM 79.0°F26.1°C 64.9°F18.3°C 63% 4.0 mph W6.4 kmh W 20.0 mph32.2 kmh 29.72 in1006.4 mb 0.00 in0.0 mm 0.00 in0.0 mm 0.00 in0.0 mm
02:34 PM 78.0°F25.6°C 65.4°F18.6°C 66% 5.0 mph WSW8.0 kmh WSW 23.0 mph37.0 kmh 29.73 in1006.8 mb 0.00 in0.0 mm 0.00 in0.0 mm 0.00 in0.0 mm
02:39 PM 76.5°F24.7°C 66.1°F18.9°C 71% 6.0 mph W9.7 kmh W 23.0 mph37.0 kmh 29.72 in1006.4 mb 0.59 in15.0 mm 7.08 in179.8 mm 0.01 in0.3 mm
02:44 PM 74.8°F23.8°C 67.3°F19.6°C 78% Calm Calm 23.0 mph37.0 kmh 29.71 in1006.1 mb 0.22 in5.6 mm 0.00 in0.0 mm 0.04 in1.0 mm
02:49 PM 73.5°F23.1°C 68.2°F20.1°C 84% 2.0 mph SSW3.2 kmh SSW 23.0 mph37.0 kmh 29.70 in1005.8 mb 0.08 in2.0 mm 0.00 in0.0 mm 0.04 in1.0 mm
02:54 PM 73.4°F23.0°C 68.5°F20.3°C 85% 1.0 mph SW1.6 kmh SW 7.0 mph11.3 kmh 29.70 in1005.8 mb 0.05 in1.3 mm 0.00 in0.0 mm 0.04 in1.0 mm
02:59 PM 74.4°F23.6°C 70.2°F21.2°C 87% Calm Calm -- 29.70 in1005.8 mb 0.00 in0.0 mm 0.00 in0.0 mm 0.04 in1.0 mm
03:04 PM 75.2°F24.0°C 70.3°F21.3°C 85% 3.0 mph WSW4.8 kmh WSW 4.0 mph6.4 kmh 29.70 in1005.8 mb 0.00 in0.0 mm 0.00 in0.0 mm 0.04 in1.0 mm
03:09 PM 76.6°F24.8°C 70.9°F21.6°C 83% Calm Calm -- 29.70 in1005.8 mb 0.00 in0.0 mm 0.00 in0.0 mm 0.04 in1.0 mm
03:14 PM 78.3°F25.7°C 71.1°F21.7°C 79% Calm Calm 1.0 mph1.6 kmh 29.70 in1005.8 mb 0.00 in0.0 mm 0.00 in0.0 mm 0.04 in1.0 mm
03:19 PM 78.8°F26.0°C 71.5°F21.9°C 79% Calm Calm 4.0 mph6.4 kmh 29.70 in1005.8 mb 0.00 in0.0 mm 0.00 in0.0 mm 0.04 in1.0 mm
03:24 PM 79.6°F26.4°C 71.5°F21.9°C 77% 2.0 mph S3.2 kmh S 6.0 mph9.7 kmh 29.70 in1005.8 mb 0.00 in0.0 mm 0.00 in0.0 mm 0.04 in1.0 mm
03:29 PM 80.1°F26.7°C 70.8°F21.6°C 74% 4.0 mph S6.4 kmh S 6.0 mph9.7 kmh 29.70 in1005.8 mb 0.00 in0.0 mm 0.00 in0.0 mm 0.04 in1.0 mm
03:34 PM 80.1°F26.7°C 70.0°F21.1°C 72% Calm Calm -- 29.70 in1005.8 mb 0.00 in0.0 mm 0.00 in0.0 mm 0.04 in1.0 mm
03:39 PM 79.9°F26.6°C 69.4°F20.8°C 71% Calm Calm 2.0 mph3.2 kmh 29.69 in1005.4 mb 0.00 in0.0 mm 0.00 in0.0 mm 0.04 in1.0 mm
03:44 PM 80.2°F26.8°C 70.5°F21.4°C 73% 2.0 mph SE3.2 kmh SE 4.0 mph6.4 kmh 29.69 in1005.4 mb 0.00 in0.0 mm 0.00 in0.0 mm 0.04 in1.0 mm
03:49 PM 80.8°F27.1°C 69.8°F21.0°C 70% Calm Calm 1.0 mph1.6 kmh 29.69 in1005.4 mb 0.00 in0.0 mm 0.00 in0.0 mm 0.04 in1.0 mm
03:54 PM 81.3°F27.4°C 70.3°F21.3°C 70% 3.0 mph S4.8 kmh S 4.0 mph6.4 kmh 29.69 in1005.4 mb 0.00 in0.0 mm 0.00 in0.0 mm 0.04 in1.0 mm
03:59 PM 82.0°F27.8°C 69.2°F20.7°C 66% 5.0 mph S8.0 kmh S 7.0 mph11.3 kmh 29.68 in1005.1 mb 0.00 in0.0 mm 0.00 in0.0 mm 0.04 in1.0 mm
04:04 PM 82.5°F28.1°C 70.1°F21.2°C 67% 6.0 mph S9.7 kmh S 6.0 mph9.7 kmh 29.68 in1005.1 mb 0.00 in0.0 mm 0.00 in0.0 mm 0.04 in1.0 mm
04:09 PM 82.7°F28.2°C 69.8°F21.0°C 66% Calm Calm -- 29.68 in1005.1 mb 0.00 in0.0 mm 0.00 in0.0 mm 0.04 in1.0 mm
04:14 PM 82.6°F28.1°C 71.5°F21.9°C 70% Calm Calm 4.0 mph6.4 kmh 29.67 in1004.7 mb 0.00 in0.0 mm 0.00 in0.0 mm 0.04 in1.0 mm
04:19 PM 83.0°F28.3°C 70.6°F21.4°C 67% Calm Calm 7.0 mph11.3 kmh 29.67 in1004.7 mb 0.00 in0.0 mm 0.00 in0.0 mm 0.04 in1.0 mm
04:24 PM 83.2°F28.4°C 70.3°F21.3°C 66% 1.0 mph WSW1.6 kmh WSW 9.0 mph14.5 kmh 29.67 in1004.7 mb 0.00 in0.0 mm 0.00 in0.0 mm 0.04 in1.0 mm
04:29 PM 83.1°F28.4°C 68.8°F20.4°C 63% 4.0 mph WSW6.4 kmh WSW 14.0 mph22.5 kmh 29.67 in1004.7 mb 0.00 in0.0 mm 0.00 in0.0 mm 0.04 in1.0 mm
04:34 PM 82.9°F28.3°C 68.6°F20.3°C 63% Calm Calm 14.0 mph22.5 kmh 29.67 in1004.7 mb 0.00 in0.0 mm 0.00 in0.0 mm 0.04 in1.0 mm
04:39 PM 82.8°F28.2°C 69.0°F20.6°C 64% 8.0 mph SSW12.9 kmh SSW 16.0 mph25.7 kmh 29.67 in1004.7 mb 0.00 in0.0 mm 0.00 in0.0 mm 0.04 in1.0 mm
04:44 PM 83.1°F28.4°C 68.3°F20.2°C 62% 2.0 mph S3.2 kmh S 16.0 mph25.7 kmh 29.67 in1004.7 mb 0.00 in0.0 mm 0.00 in0.0 mm 0.04 in1.0 mm
04:49 PM 83.3°F28.5°C 68.5°F20.3°C 62% 5.0 mph S8.0 kmh S 16.0 mph25.7 kmh 29.68 in1005.1 mb 0.00 in0.0 mm 0.00 in0.0 mm 0.04 in1.0 mm
04:54 PM 83.4°F28.6°C 69.1°F20.6°C 63% 5.0 mph SW8.0 kmh SW 16.0 mph25.7 kmh 29.68 in1005.1 mb 0.00 in0.0 mm 0.00 in0.0 mm 0.04 in1.0 mm
04:59 PM 83.1°F28.4°C 69.3°F20.7°C 64% Calm Calm 4.0 mph6.4 kmh 29.68 in1005.1 mb 0.00 in0.0 mm 0.00 in0.0 mm 0.04 in1.0 mm
05:04 PM 82.9°F28.3°C 70.5°F21.4°C 67% 1.0 mph WSW1.6 kmh WSW 4.0 mph6.4 kmh 29.68 in1005.1 mb 0.00 in0.0 mm 0.00 in0.0 mm 0.04 in1.0 mm
05:09 PM 83.1°F28.4°C 69.3°F20.7°C 64% 1.0 mph WSW1.6 kmh WSW 11.0 mph17.7 kmh 29.68 in1005.1 mb 0.00 in0.0 mm 0.00 in0.0 mm 0.04 in1.0 mm
05:14 PM 83.1°F28.4°C 69.3°F20.7°C 64% 4.0 mph SW6.4 kmh SW 7.0 mph11.3 kmh 29.68 in1005.1 mb 0.00 in0.0 mm 0.00 in0.0 mm 0.04 in1.0 mm
05:19 PM 83.3°F28.5°C 69.5°F20.8°C 64% Calm Calm 7.0 mph11.3 kmh 29.68 in1005.1 mb 0.00 in0.0 mm 0.00 in0.0 mm 0.04 in1.0 mm
05:24 PM 83.6°F28.7°C 69.3°F20.7°C 63% 4.0 mph S6.4 kmh S 11.0 mph17.7 kmh 29.68 in1005.1 mb 0.00 in0.0 mm 0.00 in0.0 mm 0.04 in1.0 mm
05:29 PM 83.7°F28.7°C 69.4°F20.8°C 63% Calm Calm 15.0 mph24.1 kmh 29.68 in1005.1 mb 0.00 in0.0 mm 0.00 in0.0 mm 0.04 in1.0 mm
05:34 PM 83.6°F28.7°C 69.3°F20.7°C 63% Calm Calm 2.0 mph3.2 kmh 29.68 in1005.1 mb 0.00 in0.0 mm 0.00 in0.0 mm 0.04 in1.0 mm
05:39 PM 83.5°F28.6°C 70.6°F21.4°C 66% Calm Calm 4.0 mph6.4 kmh 29.68 in1005.1 mb 0.00 in0.0 mm 0.00 in0.0 mm 0.04 in1.0 mm
05:44 PM 83.6°F28.7°C 70.2°F21.2°C 65% Calm Calm 4.0 mph6.4 kmh 29.68 in1005.1 mb 0.00 in0.0 mm 0.00 in0.0 mm 0.04 in1.0 mm
05:49 PM 83.3°F28.5°C 70.4°F21.3°C 66% Calm Calm 4.0 mph6.4 kmh 29.68 in1005.1 mb 0.00 in0.0 mm 0.00 in0.0 mm 0.04 in1.0 mm
05:54 PM 83.2°F28.4°C 70.3°F21.3°C 66% Calm Calm -- 29.68 in1005.1 mb 0.00 in0.0 mm 0.00 in0.0 mm 0.04 in1.0 mm
05:59 PM 83.3°F28.5°C 69.5°F20.8°C 64% 2.0 mph SSW3.2 kmh SSW 9.0 mph14.5 kmh 29.68 in1005.1 mb 0.00 in0.0 mm 0.00 in0.0 mm 0.04 in1.0 mm
06:04 PM 83.2°F28.4°C 68.9°F20.5°C 63% Calm Calm 7.0 mph11.3 kmh 29.68 in1005.1 mb 0.00 in0.0 mm 0.00 in0.0 mm 0.04 in1.0 mm
06:09 PM 82.8°F28.2°C 68.5°F20.3°C 63% 4.0 mph S6.4 kmh S 7.0 mph11.3 kmh 29.68 in1005.1 mb 0.00 in0.0 mm 0.00 in0.0 mm 0.04 in1.0 mm
06:14 PM 82.5°F28.1°C 68.7°F20.4°C 64% Calm Calm -- 29.68 in1005.1 mb 0.00 in0.0 mm 0.00 in0.0 mm 0.04 in1.0 mm
06:19 PM 82.2°F27.9°C 68.4°F20.2°C 64% Calm Calm 5.0 mph8.0 kmh 29.68 in1005.1 mb 0.00 in0.0 mm 0.00 in0.0 mm 0.04 in1.0 mm
06:24 PM 82.1°F27.8°C 67.9°F19.9°C 63% 3.0 mph SSW4.8 kmh SSW 7.0 mph11.3 kmh 29.68 in1005.1 mb 0.00 in0.0 mm 0.00 in0.0 mm 0.04 in1.0 mm
06:29 PM 82.0°F27.8°C 67.8°F19.9°C 63% Calm Calm 7.0 mph11.3 kmh 29.68 in1005.1 mb 0.00 in0.0 mm 0.00 in0.0 mm 0.04 in1.0 mm
06:34 PM 82.1°F27.8°C 68.3°F20.2°C 64% Calm Calm -- 29.68 in1005.1 mb 0.00 in0.0 mm 0.00 in0.0 mm 0.04 in1.0 mm
06:39 PM 81.9°F27.7°C 68.1°F20.1°C 64% Calm Calm -- 29.67 in1004.7 mb 0.00 in0.0 mm 0.00 in0.0 mm 0.04 in1.0 mm
06:44 PM 81.6°F27.6°C 68.8°F20.4°C 66% Calm Calm -- 29.68 in1005.1 mb 0.00 in0.0 mm 0.00 in0.0 mm 0.04 in1.0 mm
06:49 PM 81.2°F27.3°C 68.9°F20.5°C 67% Calm Calm -- 29.68 in1005.1 mb 0.00 in0.0 mm 0.00 in0.0 mm 0.04 in1.0 mm
06:54 PM 81.1°F27.3°C 68.8°F20.4°C 67% Calm Calm -- 29.68 in1005.1 mb 0.00 in0.0 mm 0.00 in0.0 mm 0.04 in1.0 mm
06:59 PM 81.0°F27.2°C 68.7°F20.4°C 67% Calm Calm 4.0 mph6.4 kmh 29.68 in1005.1 mb 0.00 in0.0 mm 0.00 in0.0 mm 0.04 in1.0 mm
07:04 PM 80.9°F27.2°C 69.9°F21.1°C 70% Calm Calm -- 29.68 in1005.1 mb 0.00 in0.0 mm 0.00 in0.0 mm 0.04 in1.0 mm
07:09 PM 80.6°F27.0°C 69.6°F20.9°C 70% Calm Calm -- 29.68 in1005.1 mb 0.00 in0.0 mm 0.00 in0.0 mm 0.04 in1.0 mm
07:14 PM 80.5°F26.9°C 71.2°F21.8°C 74% Calm Calm -- 29.68 in1005.1 mb 0.00 in0.0 mm 0.00 in0.0 mm 0.04 in1.0 mm
07:19 PM 80.5°F26.9°C 71.2°F21.8°C 74% Calm Calm -- 29.68 in1005.1 mb 0.00 in0.0 mm 0.00 in0.0 mm 0.04 in1.0 mm
07:24 PM 80.2°F26.8°C 71.3°F21.8°C 75% Calm Calm -- 29.68 in1005.1 mb 0.00 in0.0 mm 0.00 in0.0 mm 0.04 in1.0 mm
07:29 PM 80.1°F26.7°C 72.0°F22.2°C 77% Calm Calm -- 29.68 in1005.1 mb 0.00 in0.0 mm 0.00 in0.0 mm 0.04 in1.0 mm
07:34 PM 79.7°F26.5°C 71.6°F22.0°C 77% Calm Calm -- 29.67 in1004.7 mb 0.00 in0.0 mm 0.00 in0.0 mm 0.04 in1.0 mm
07:39 PM 79.2°F26.2°C 71.1°F21.7°C 77% Calm Calm -- 29.67 in1004.7 mb 0.00 in0.0 mm 0.00 in0.0 mm 0.04 in1.0 mm
07:44 PM 78.7°F25.9°C 70.7°F21.5°C 77% Calm Calm -- 29.67 in1004.7 mb 0.00 in0.0 mm 0.00 in0.0 mm 0.04 in1.0 mm
07:49 PM 78.5°F25.8°C 70.9°F21.6°C 78% Calm Calm -- 29.67 in1004.7 mb 0.00 in0.0 mm 0.00 in0.0 mm 0.04 in1.0 mm
07:54 PM 78.3°F25.7°C 71.1°F21.7°C 79% Calm Calm -- 29.67 in1004.7 mb 0.00 in0.0 mm 0.00 in0.0 mm 0.04 in1.0 mm
07:59 PM 78.1°F25.6°C 70.9°F21.6°C 79% Calm Calm -- 29.67 in1004.7 mb 0.00 in0.0 mm 0.00 in0.0 mm 0.04 in1.0 mm
08:04 PM 77.9°F25.5°C 70.7°F21.5°C 79% Calm Calm -- 29.67 in1004.7 mb 0.00 in0.0 mm 0.00 in0.0 mm 0.04 in1.0 mm
08:09 PM 77.7°F25.4°C 70.9°F21.6°C 80% Calm Calm -- 29.68 in1005.1 mb 0.00 in0.0 mm 0.00 in0.0 mm 0.04 in1.0 mm
08:14 PM 77.4°F25.2°C 70.6°F21.4°C 80% Calm Calm -- 29.68 in1005.1 mb 0.00 in0.0 mm 0.00 in0.0 mm 0.04 in1.0 mm
08:19 PM 77.1°F25.1°C 70.7°F21.5°C 81% Calm Calm -- 29.68 in1005.1 mb 0.00 in0.0 mm 0.00 in0.0 mm 0.04 in1.0 mm
08:24 PM 77.1°F25.1°C 71.0°F21.7°C 82% Calm Calm -- 29.68 in1005.1 mb 0.00 in0.0 mm 0.00 in0.0 mm 0.04 in1.0 mm
08:29 PM 77.0°F25.0°C 70.9°F21.6°C 82% Calm Calm -- 29.68 in1005.1 mb 0.00 in0.0 mm 0.00 in0.0 mm 0.04 in1.0 mm
08:34 PM 76.9°F24.9°C 71.2°F21.8°C 83% Calm Calm -- 29.69 in1005.4 mb 0.00 in0.0 mm 0.00 in0.0 mm 0.04 in1.0 mm
08:39 PM 76.7°F24.8°C 70.6°F21.4°C 82% Calm Calm -- 29.69 in1005.4 mb 0.00 in0.0 mm 0.00 in0.0 mm 0.04 in1.0 mm
08:44 PM 76.4°F24.7°C 70.7°F21.5°C 83% Calm Calm -- 29.70 in1005.8 mb 0.00 in0.0 mm 0.00 in0.0 mm 0.04 in1.0 mm
08:49 PM 76.4°F24.7°C 70.7°F21.5°C 83% Calm Calm -- 29.70 in1005.8 mb 0.00 in0.0 mm 0.00 in0.0 mm 0.04 in1.0 mm
08:54 PM 76.3°F24.6°C 70.6°F21.4°C 83% Calm Calm -- 29.70 in1005.8 mb 0.00 in0.0 mm 0.00 in0.0 mm 0.04 in1.0 mm
08:59 PM 76.3°F24.6°C 70.6°F21.4°C 83% Calm Calm -- 29.70 in1005.8 mb 0.00 in0.0 mm 0.00 in0.0 mm 0.04 in1.0 mm
09:04 PM 76.3°F24.6°C 70.6°F21.4°C 83% Calm Calm -- 29.70 in1005.8 mb 0.00 in0.0 mm 0.00 in0.0 mm 0.04 in1.0 mm
09:09 PM 76.3°F24.6°C 70.6°F21.4°C 83% Calm Calm -- 29.70 in1005.8 mb 0.00 in0.0 mm 0.00 in0.0 mm 0.04 in1.0 mm
09:14 PM 76.2°F24.6°C 70.1°F21.2°C 82% Calm Calm -- 29.70 in1005.8 mb 0.00 in0.0 mm 0.00 in0.0 mm 0.04 in1.0 mm
09:19 PM 76.1°F24.5°C 70.0°F21.1°C 82% Calm Calm -- 29.70 in1005.8 mb 0.00 in0.0 mm 0.00 in0.0 mm 0.04 in1.0 mm
09:24 PM 76.1°F24.5°C 70.0°F21.1°C 82% Calm Calm -- 29.70 in1005.8 mb 0.00 in0.0 mm 0.00 in0.0 mm 0.04 in1.0 mm
09:29 PM 76.1°F24.5°C 70.0°F21.1°C 82% Calm Calm -- 29.70 in1005.8 mb 0.00 in0.0 mm 0.00 in0.0 mm 0.04 in1.0 mm
09:34 PM 76.1°F24.5°C 70.0°F21.1°C 82% Calm Calm -- 29.71 in1006.1 mb 0.00 in0.0 mm 0.00 in0.0 mm 0.04 in1.0 mm
09:39 PM 76.0°F24.4°C 70.0°F21.1°C 82% Calm Calm -- 29.71 in1006.1 mb 0.00 in0.0 mm 0.00 in0.0 mm 0.04 in1.0 mm
09:44 PM 75.9°F24.4°C 69.5°F20.8°C 81% Calm Calm -- 29.71 in1006.1 mb 0.00 in0.0 mm 0.00 in0.0 mm 0.04 in1.0 mm
09:49 PM 75.7°F24.3°C 69.3°F20.7°C 81% Calm Calm -- 29.70 in1005.8 mb 0.00 in0.0 mm 0.00 in0.0 mm 0.04 in1.0 mm
09:54 PM 75.5°F24.2°C 69.1°F20.6°C 81% Calm Calm -- 29.70 in1005.8 mb 0.00 in0.0 mm 0.00 in0.0 mm 0.04 in1.0 mm
09:59 PM 75.1°F23.9°C 68.0°F20.0°C 79% Calm Calm -- 29.71 in1006.1 mb 0.00 in0.0 mm 0.00 in0.0 mm 0.04 in1.0 mm
10:04 PM 75.0°F23.9°C 68.2°F20.1°C 80% Calm Calm -- 29.71 in1006.1 mb 0.00 in0.0 mm 0.00 in0.0 mm 0.04 in1.0 mm
10:09 PM 74.9°F23.8°C 68.1°F20.1°C 80% Calm Calm -- 29.70 in1005.8 mb 0.00 in0.0 mm 0.00 in0.0 mm 0.04 in1.0 mm
10:14 PM 74.8°F23.8°C 68.0°F20.0°C 80% Calm Calm -- 29.71 in1006.1 mb 0.00 in0.0 mm 0.00 in0.0 mm 0.04 in1.0 mm
10:19 PM 74.7°F23.7°C 68.0°F20.0°C 80% Calm Calm -- 29.71 in1006.1 mb 0.00 in0.0 mm 0.00 in0.0 mm 0.04 in1.0 mm
10:24 PM 74.5°F23.6°C 67.8°F19.9°C 80% Calm Calm -- 29.71 in1006.1 mb 0.00 in0.0 mm 0.00 in0.0 mm 0.04 in1.0 mm
10:29 PM 74.5°F23.6°C 67.8°F19.9°C 80% Calm Calm -- 29.71 in1006.1 mb 0.00 in0.0 mm 0.00 in0.0 mm 0.04 in1.0 mm
10:34 PM 74.5°F23.6°C 67.8°F19.9°C 80% 2.0 mph S3.2 kmh S 2.0 mph3.2 kmh 29.71 in1006.1 mb 0.00 in0.0 mm 0.00 in0.0 mm 0.04 in1.0 mm
10:39 PM 74.5°F23.6°C 67.8°F19.9°C 80% Calm Calm 5.0 mph8.0 kmh 29.72 in1006.4 mb 0.00 in0.0 mm 0.00 in0.0 mm 0.04 in1.0 mm
10:44 PM 74.5°F23.6°C 67.4°F19.7°C 79% Calm Calm 5.0 mph8.0 kmh 29.71 in1006.1 mb 0.00 in0.0 mm 0.00 in0.0 mm 0.04 in1.0 mm
10:49 PM 74.5°F23.6°C 67.0°F19.4°C 78% Calm Calm -- 29.71 in1006.1 mb 0.00 in0.0 mm 0.00 in0.0 mm 0.04 in1.0 mm
10:54 PM 74.5°F23.6°C 67.0°F19.4°C 78% Calm Calm -- 29.71 in1006.1 mb 0.00 in0.0 mm 0.00 in0.0 mm 0.04 in1.0 mm
10:59 PM 74.4°F23.6°C 66.9°F19.4°C 78% Calm Calm -- 29.72 in1006.4 mb 0.00 in0.0 mm 0.00 in0.0 mm 0.04 in1.0 mm
11:04 PM 74.3°F23.5°C 67.2°F19.6°C 79% Calm Calm -- 29.72 in1006.4 mb 0.00 in0.0 mm 0.00 in0.0 mm 0.59 in15.0 mm
11:09 PM 74.2°F23.4°C 67.1°F19.5°C 79% Calm Calm -- 29.71 in1006.1 mb 0.00 in0.0 mm 0.00 in0.0 mm 0.59 in15.0 mm
11:14 PM 74.2°F23.4°C 67.5°F19.7°C 80% Calm Calm 4.0 mph6.4 kmh 29.71 in1006.1 mb 0.00 in0.0 mm 0.00 in0.0 mm 0.59 in15.0 mm
11:19 PM 74.0°F23.3°C 67.3°F19.6°C 80% 4.0 mph S6.4 kmh S 8.0 mph12.9 kmh 29.71 in1006.1 mb 0.00 in0.0 mm 0.00 in0.0 mm 0.59 in15.0 mm
11:24 PM 74.1°F23.4°C 67.4°F19.7°C 80% 4.0 mph S6.4 kmh S 8.0 mph12.9 kmh 29.71 in1006.1 mb 0.00 in0.0 mm 0.00 in0.0 mm 0.59 in15.0 mm
11:29 PM 74.1°F23.4°C 67.4°F19.7°C 80% 2.0 mph S3.2 kmh S 8.0 mph12.9 kmh 29.71 in1006.1 mb 0.00 in0.0 mm 0.00 in0.0 mm 0.59 in15.0 mm
11:34 PM 74.0°F23.3°C 67.3°F19.6°C 80% Calm Calm 8.0 mph12.9 kmh 29.71 in1006.1 mb 0.00 in0.0 mm 0.00 in0.0 mm 0.59 in15.0 mm
11:39 PM 74.0°F23.3°C 67.3°F19.6°C 80% Calm Calm 5.0 mph8.0 kmh 29.71 in1006.1 mb 0.00 in0.0 mm 0.00 in0.0 mm 0.59 in15.0 mm
11:44 PM 73.9°F23.3°C 67.2°F19.6°C 80% 2.0 mph SSW3.2 kmh SSW 6.0 mph9.7 kmh 29.71 in1006.1 mb 0.00 in0.0 mm 0.00 in0.0 mm 0.59 in15.0 mm
11:49 PM 73.8°F23.2°C 67.1°F19.5°C 80% Calm Calm 6.0 mph9.7 kmh 29.71 in1006.1 mb 0.00 in0.0 mm 0.00 in0.0 mm 0.59 in15.0 mm
11:54 PM 73.7°F23.2°C 67.0°F19.4°C 80% Calm Calm 1.0 mph1.6 kmh 29.71 in1006.1 mb 0.00 in0.0 mm 0.00 in0.0 mm 0.59 in15.0 mm
11:59 PM 73.6°F23.1°C 66.9°F19.4°C 80% 3.0 mph SSW4.8 kmh SSW 5.0 mph8.0 kmh 29.71 in1006.1 mb 0.00 in0.0 mm 0.00 in0.0 mm 0.59 in15.0 mm